Aktualne dane pomiarowe

Uwaga, wersja testowa! Automatyczne pobieranie danych za pomocą narzędzi lub skryptów to umożliwiających jest zabronione.

Dane meteo z obszaru Polski uzyskane na podstawie depesz SYNOP pobieranych co godzinę z NWS. Najedź myszką na symbol przedstawiony w tabeli, aby uzyskać informacje co do jego znaczenia. Prosimy pamiętać, że to testowa wersja strony, która jeszcze nie jest ukończona. Stworzono również jest krótki FAQ dotyczący korzystania z tej podstrony Anomalie temperatury w chwili obecnej odniesione są do okresu referencyjnego 1951-2016. Okres ten będzie później zmieniony na 1981-2010. Kliknij ikonę aby pobrać plik CSV. Kliknij ikonę aby wygenerować mapę synoptyczną dla danego terminu.

Wybierz Datę:    

        

Śnieżka (12510)

Dane terminowe dla wybranej stacji. Kliknij datę, aby otrzymać dane z tego terminu dla wszystkich stacji.

TemperaturaZachmurzenieWiatrCiśnienieOpadyPogoda
 Data t td wb tx tn tg rh  Nt Nl Cl Cm Ch ws wd g1 g2 wx mslp ppp ch 24h 12h t ww ww w1 w2  
2019-07-20 23:00:00 14.1 10.5 11.7--- 7950.0wxwxwxwx10wx---- 840.4 -0.4---wx---
2019-07-20 22:00:00 14.3 10.3 11.7--- 7750.0wxwxwxwxwx12wx---- 840.7 -0.2---wx---
2019-07-20 21:00:00 14.9 9.7 11.6--- 7150.0wxwxwxwxwx10wx---- 841.1 0.1---wx---
2019-07-20 20:00:00 15.3 9.2 11.6--- 6750.0wx-wxwx11wx---- 840.8 -0.5---------
2019-07-20 19:00:00 15.1 8.8 11.3--- 6650.0wx-wxwx8wx---- 840.9 -0.6---------
2019-07-20 18:00:00 15.9 8.9 11.7 17.3 10.1- 6350.0wxwxwxwxwx5wx---- 841.0 -0.5- 0.012------
2019-07-20 17:00:00 16.3 8.8 11.8--- 6150.0wxwxwxwxwx5wx---- 841.3 -0.3---------
2019-07-20 16:00:00 17.1 8.8 12.2--- 5850.0wxwxwxwxwx4wx---- 841.5 -0.1---------
2019-07-20 15:00:00 16.0 8.2 11.4--- 6050.0wxwxwxwxwx6wx---- 841.5 0.0---------
2019-07-20 14:00:00 16.0 9.0 11.8--- 6350.0wxwxwxwxwx4wx---- 841.6 0.1---------
2019-07-20 13:00:00 14.8 8.7 11.1--- 6750.0wxwxwx3wx---- 841.6 0.5---------
2019-07-20 12:00:00 15.1 9.2 11.5--- 6850.0wxwxwxwxwx4wx---- 841.5 0.2- 0.06wx-w1--
2019-07-20 11:00:00 13.2 10.0 11.1--- 8150.0wxwxwx4wx---- 841.5 0.5---------
2019-07-20 10:00:00 11.9 9.8 10.5--- 8740.0wxwxwx6wx---- 841.1 0.4---------
2019-07-20 09:00:00 11.5 10.6 10.8--- 9440.0wxwxwx4wx---- 841.3 0.9---wx-w1--
2019-07-20 08:00:00 11.7 10.6 10.9--- 9340.0wxwxwx3wx---- 841.0 1.1---------
2019-07-20 07:00:00 11.0 9.3 9.8--- 8940.0wxwxwx3wx---- 840.7 1.3---wx---
2019-07-20 06:00:00 10.1 10.1 10.0 10.3 9.3- 1000.1wxwxwx4wx---- 840.4 0.7 2.0 0.012wx-w1w2- 2.3
2019-07-20 05:00:00 9.9 9.9 9.8--- 1000.1wxwxwx9wx---- 839.9 0.4---wx-w1w2--
2019-07-20 04:00:00 9.6 9.6 9.5--- 1000.6wxwxwx9wx---- 839.4 -0.1---wx-w1w2--
2019-07-20 03:00:00 9.6 9.6 9.5--- 1000.6wxwxwx9wx---- 839.7 -0.1---wx-w1w2--
2019-07-20 02:00:00 9.6 9.6 9.5--- 1000.6wxwxwx8wx---- 839.5 -0.2---wx-w1w2--
2019-07-20 01:00:00 9.7 9.7 9.6--- 1000.9wxwxwx9wx---- 839.5 -0.4---wx-w1w2--
2019-07-20 00:00:00 9.6 9.6 9.5--- 1000.9wxwxwx9wx---- 839.8 -0.2- 0.06wx-w1w2--
2019-07-19 23:00:00 9.8 9.8 9.7--- 1000.9wxwxwxwx9wx---- 839.7 -0.2---wx-w1w2--
2019-07-19 22:00:00 9.6 9.6 9.5--- 10050.0wxwxwx9wx---- 839.9 0.6---wx-w1w2--
2019-07-19 21:00:00 9.7 9.7 9.6--- 1000.1wxwxwx7wx---- 840.0 0.8---wx---
2019-07-19 20:00:00 9.8 9.8 9.7--- 1000.9wxwxwxwx7wx---- 839.9 0.6---wx---
2019-07-19 19:00:00 10.0 9.5 9.6--- 9750.0wxwxwxwxwx9wx---- 839.3 0.0---------
2019-07-19 18:00:00 10.0 9.8 9.8 13.9 9.8- 9950.0wxwxwxwx7wx---- 839.2 -0.5- 2.012wx-w1--
2019-07-19 17:00:00 10.1 9.6 9.7--- 9740.0wxwxwxwxwx6wx---- 839.3 -0.1---wx---
2019-07-19 16:00:00 10.2 9.3 9.5--- 9440.0wxwxwxwxwx6wx---- 839.3 -0.1---wx---
2019-07-19 15:00:00 10.9 8.8 9.5--- 8740.0wxwxwxwxwx5wx---- 839.7 -0.2---wx-w1--
2019-07-19 14:00:00 11.2 8.8 9.6--- 8550.0wxwxwxwxwx7wx---- 839.4 -0.5---------
2019-07-19 13:00:00 10.8 8.7 9.4--- 8730.0wxwxwxwx10wx---- 839.4 -0.4---wx---
2019-07-19 12:00:00 11.4 8.3 9.4--- 8112.0wxwxwx5wx---- 839.9 0.2- 0.16wx---
2019-07-19 11:00:00 13.6 6.0 9.3--- 6050.0wxwxwx3wx---- 839.9 0.6---------
2019-07-19 10:00:00 13.2 6.1 9.1--- 6250.0wxwxwxwx3wx---- 839.8 0.8---------
2019-07-19 09:00:00 11.4 6.3 8.4--- 7150.0wxwxwxwx3wx---- 839.7 1.0---------
2019-07-19 08:00:00 12.2 5.6 8.4--- 6450.0wxwxwxwx7wx---- 839.3 0.9---------
2019-07-19 07:00:00 12.1 5.5 8.3--- 6450.0wx-wx7wx---- 839.0 0.9---------
2019-07-19 06:00:00 12.1 5.0 8.1 12.2 10.5- 6250.0wx-wx8wx---- 838.7 0.5- 0.012----- 5.7
2019-07-19 05:00:00 11.5 4.9 7.8--- 6450.0wx-wx5wx---- 838.4 0.3---------
2019-07-19 04:00:00 11.4 6.3 8.4--- 7150.0wx-wx7wx---- 838.1 -0.1---------
2019-07-19 03:00:00 11.0 6.1 8.1--- 7250.0wx-wx8wx---- 838.2 0.1---------
2019-07-19 02:00:00 10.8 6.2 8.0--- 7350.0wx-wxwx8wx---- 838.1 -0.1---------
2019-07-19 01:00:00 10.8 6.2 8.0--- 7350.0wx-wxwx5wx---- 838.2 0.0---------
2019-07-19 00:00:00 10.9 5.0 7.5--- 6750.0wx-wxwx8wx---- 838.1 -0.1- 0.06------
1.3 ms

 

Print Friendly, PDF & Email